Terminal Aerodrome Forecast
Issued by NWS Wakefield, VA

Home | Current Version | Previous Version | Text Only | Print | Product List | Glossary On
Versions: 1 2 3 4 5 6 7 8 9 10 11 12 13 14 15 16 17 18 19 20
000
FTUS41 KAKQ 062328
TAFORF
TAF
KORF 062328Z 0700/0724 18008KT P6SM FEW040 SCT250
     FM070100 19007KT P6SM VCSH BKN040 BKN250
     FM070900 21005KT 5SM BR FEW250
     FM071300 19008KT P6SM SCT100=

USA.gov is the U.S. government's official web portal to all federal, state and local government web resources and services.